createdAt,value
2018-02-12T00:00:22.886Z,4.19
2018-02-12T00:00:48.982Z,4.08
2018-02-12T00:01:15.083Z,4.16
2018-02-12T00:01:41.185Z,4.06
2018-02-12T00:02:07.314Z,4.02
2018-02-12T00:02:33.381Z,3.99
2018-02-12T00:02:59.481Z,4.04
2018-02-12T00:03:25.580Z,4.04
2018-02-12T00:03:51.680Z,3.98
2018-02-12T00:04:17.783Z,4.02
2018-02-12T00:04:43.878Z,4.08
2018-02-12T00:05:09.977Z,4.06
2018-02-12T00:05:36.078Z,4.1
2018-02-12T00:06:02.182Z,3.98
2018-02-12T00:06:28.280Z,4.08
2018-02-12T00:06:54.376Z,3.99
2018-02-12T00:07:20.478Z,4.08
2018-02-12T00:07:46.572Z,4.04
2018-02-12T00:08:12.679Z,3.88
2018-02-12T00:08:38.772Z,3.96
2018-02-12T00:09:04.871Z,3.95
2018-02-12T00:09:30.990Z,3.95
2018-02-12T00:09:57.088Z,3.92
2018-02-12T00:10:23.187Z,3.92
2018-02-12T00:10:49.293Z,3.96
2018-02-12T00:11:15.393Z,3.78
2018-02-12T00:11:41.492Z,3.78
2018-02-12T00:12:07.591Z,3.83
2018-02-12T00:12:33.700Z,3.92
2018-02-12T00:12:59.797Z,3.88
2018-02-12T00:13:25.902Z,3.86
2018-02-12T00:13:51.998Z,3.83
2018-02-12T00:14:18.102Z,3.86
2018-02-12T00:14:44.203Z,3.84
2018-02-12T00:15:10.300Z,3.8
2018-02-12T00:15:36.397Z,3.78
2018-02-12T00:16:02.499Z,3.78
2018-02-12T00:16:28.598Z,3.76
2018-02-12T00:16:54.694Z,3.78
2018-02-12T00:17:20.817Z,3.8
2018-02-12T00:17:46.913Z,3.87
2018-02-12T00:18:13.015Z,3.94
2018-02-12T00:18:39.114Z,3.98
2018-02-12T00:19:05.231Z,3.88
2018-02-12T00:19:31.334Z,3.84
2018-02-12T00:19:57.436Z,3.91
2018-02-12T00:20:23.550Z,3.96
2018-02-12T00:20:49.655Z,3.88
2018-02-12T00:21:15.748Z,3.87
2018-02-12T00:21:41.848Z,3.92
2018-02-12T00:22:07.948Z,3.81
2018-02-12T00:22:34.050Z,3.76
2018-02-12T00:23:00.144Z,3.78
2018-02-12T00:23:26.240Z,3.77
2018-02-12T00:23:52.344Z,3.8
2018-02-12T00:24:18.441Z,3.81
2018-02-12T00:24:44.538Z,3.81
2018-02-12T00:25:10.641Z,3.78
2018-02-12T00:25:36.743Z,3.8
2018-02-12T00:26:02.841Z,3.78
2018-02-12T00:26:28.937Z,3.78
2018-02-12T00:26:55.040Z,3.76
2018-02-12T00:27:21.137Z,3.73
2018-02-12T00:27:47.240Z,3.69
2018-02-12T00:28:13.334Z,3.69
2018-02-12T00:28:39.447Z,3.76
2018-02-12T00:29:05.545Z,3.76
2018-02-12T00:29:31.637Z,3.86
2018-02-12T00:29:57.739Z,3.76
2018-02-12T00:30:23.843Z,3.83
2018-02-12T00:30:49.939Z,3.81
2018-02-12T00:31:16.038Z,3.84
2018-02-12T00:31:42.138Z,3.87
2018-02-12T00:32:08.236Z,3.76
2018-02-12T00:32:34.338Z,3.91
2018-02-12T00:33:00.443Z,3.94
2018-02-12T00:33:26.542Z,3.88
2018-02-12T00:33:52.636Z,3.88
2018-02-12T00:34:18.741Z,3.94
2018-02-12T00:34:44.842Z,3.96
2018-02-12T00:35:10.939Z,3.91
2018-02-12T00:35:37.040Z,3.86
2018-02-12T00:36:03.135Z,4.01
2018-02-12T00:36:29.249Z,4.08
2018-02-12T00:36:55.347Z,3.98
2018-02-12T00:37:21.445Z,4.05
2018-02-12T00:37:47.547Z,3.99
2018-02-12T00:38:13.663Z,4.08
2018-02-12T00:38:39.766Z,3.95
2018-02-12T00:39:05.864Z,4.1
2018-02-12T00:39:31.967Z,4.05
2018-02-12T00:39:58.071Z,4.16
2018-02-12T00:40:24.167Z,4.17
2018-02-12T00:40:50.266Z,4.05
2018-02-12T00:41:16.362Z,4.16
2018-02-12T00:41:42.469Z,4.1
2018-02-12T00:42:08.566Z,4.1
2018-02-12T00:42:34.669Z,4.08
2018-02-12T00:43:00.775Z,4.19
2018-02-12T00:43:26.874Z,4.37
2018-02-12T00:43:52.982Z,4.17
2018-02-12T00:44:19.082Z,4.1
2018-02-12T00:44:45.178Z,4.1
2018-02-12T00:45:11.277Z,4.16
2018-02-12T00:45:37.382Z,4.24
2018-02-12T00:46:03.475Z,4.22
2018-02-12T00:46:29.577Z,4.5
2018-02-12T00:46:55.680Z,4.48
2018-02-12T00:47:21.781Z,4.48
2018-02-12T00:47:47.889Z,4.41
2018-02-12T00:48:13.978Z,4.35
2018-02-12T00:48:40.073Z,4.35
2018-02-12T00:49:06.180Z,4.37
2018-02-12T00:49:32.282Z,4.41
2018-02-12T00:49:58.382Z,4.49
2018-02-12T00:50:24.480Z,4.42
2018-02-12T00:50:50.587Z,4.32
2018-02-12T00:51:16.680Z,4.31
2018-02-12T00:51:42.785Z,4.45
2018-02-12T00:52:08.882Z,4.35
2018-02-12T00:52:34.986Z,4.38
2018-02-12T00:53:01.082Z,4.41
2018-02-12T00:53:27.186Z,4.28
2018-02-12T00:53:53.285Z,4.37
2018-02-12T00:54:19.380Z,4.48
2018-02-12T00:54:45.485Z,4.5
2018-02-12T00:55:11.581Z,4.59
2018-02-12T00:55:37.681Z,4.74
2018-02-12T00:56:03.786Z,4.74
2018-02-12T00:56:29.883Z,4.63
2018-02-12T00:56:55.989Z,4.77
2018-02-12T00:57:22.089Z,4.8
2018-02-12T00:57:48.205Z,4.89
2018-02-12T00:58:14.317Z,4.8
2018-02-12T00:58:40.424Z,4.77
2018-02-12T00:59:06.532Z,4.87
2018-02-12T00:59:32.632Z,4.9
2018-02-12T00:59:58.736Z,4.9
2018-02-12T01:00:24.842Z,4.9
2018-02-12T01:00:50.930Z,4.87
2018-02-12T01:01:17.034Z,4.96
2018-02-12T01:01:43.133Z,4.84
2018-02-12T01:02:09.233Z,4.78
2018-02-12T01:02:35.340Z,4.82
2018-02-12T01:03:01.435Z,5
2018-02-12T01:03:27.555Z,5
2018-02-12T01:03:53.652Z,4.99
2018-02-12T01:04:19.773Z,5.07
2018-02-12T01:04:45.865Z,5.18
2018-02-12T01:05:11.971Z,5.1
2018-02-12T01:05:38.067Z,5.17
2018-02-12T01:06:04.164Z,5.05
2018-02-12T01:06:30.269Z,5.1
2018-02-12T01:06:56.363Z,5.08
2018-02-12T01:07:22.504Z,5.14
2018-02-12T01:07:48.605Z,5.26
2018-02-12T01:08:14.700Z,5.33
2018-02-12T01:08:40.796Z,5.32
2018-02-12T01:09:06.901Z,5.28
2018-02-12T01:09:33.001Z,5.33
2018-02-12T01:09:59.097Z,5.38
2018-02-12T01:10:25.203Z,5.35
2018-02-12T01:10:51.302Z,5.53
2018-02-12T01:11:17.399Z,5.44
2018-02-12T01:11:43.500Z,5.35
2018-02-12T01:12:09.594Z,5.26
2018-02-12T01:12:35.699Z,5.23
2018-02-12T01:13:01.799Z,5.26
2018-02-12T01:13:27.897Z,5.3
2018-02-12T01:13:54.004Z,5.26
2018-02-12T01:14:20.096Z,5.39
2018-02-12T01:14:46.200Z,5.33
2018-02-12T01:15:12.299Z,5.39
2018-02-12T01:15:38.399Z,5.47
2018-02-12T01:16:04.502Z,5.54
2018-02-12T01:16:30.593Z,5.51
2018-02-12T01:16:56.697Z,5.53
2018-02-12T01:17:22.823Z,5.53
2018-02-12T01:17:48.922Z,5.68
2018-02-12T01:18:15.024Z,5.65
2018-02-12T01:18:41.117Z,5.54
2018-02-12T01:19:07.218Z,5.56
2018-02-12T01:19:33.322Z,5.48
2018-02-12T01:19:59.422Z,5.53
2018-02-12T01:20:25.526Z,5.38
2018-02-12T01:20:51.621Z,5.35
2018-02-12T01:21:17.721Z,5.38
2018-02-12T01:21:43.822Z,5.36
2018-02-12T01:22:09.932Z,5.46
2018-02-12T01:22:36.035Z,5.59
2018-02-12T01:23:02.137Z,5.54
2018-02-12T01:23:28.244Z,5.54
2018-02-12T01:23:54.337Z,5.54
2018-02-12T01:24:20.436Z,5.56
2018-02-12T01:24:46.539Z,5.59
2018-02-12T01:25:12.637Z,5.54
2018-02-12T01:25:38.790Z,5.53
2018-02-12T01:26:04.885Z,5.59
2018-02-12T01:26:30.989Z,5.54
2018-02-12T01:26:57.091Z,5.46
2018-02-12T01:27:23.185Z,5.35
2018-02-12T01:27:49.290Z,5.39
2018-02-12T01:28:15.385Z,5.36
2018-02-12T01:28:41.488Z,5.39
2018-02-12T01:29:07.584Z,5.25
2018-02-12T01:29:33.688Z,5.18
2018-02-12T01:29:59.802Z,5.14
2018-02-12T01:30:25.903Z,5.08
2018-02-12T01:30:52.006Z,5.08
2018-02-12T01:31:18.105Z,5.11
2018-02-12T01:31:44.208Z,5.05
2018-02-12T01:32:10.306Z,5.11
2018-02-12T01:32:36.405Z,5.07
2018-02-12T01:33:02.503Z,5.02
2018-02-12T01:33:28.607Z,5.12
2018-02-12T01:33:54.707Z,5.05
2018-02-12T01:34:20.805Z,4.99
2018-02-12T01:34:46.901Z,5.07
2018-02-12T01:35:13.004Z,5.04
2018-02-12T01:35:39.127Z,5.05
2018-02-12T01:36:05.241Z,4.94
2018-02-12T01:36:31.344Z,4.94
2018-02-12T01:36:57.445Z,5.04
2018-02-12T01:37:23.554Z,4.99
2018-02-12T01:37:49.647Z,4.94
2018-02-12T01:38:15.747Z,4.9
2018-02-12T01:38:41.848Z,4.89
2018-02-12T01:39:07.948Z,4.9
2018-02-12T01:39:34.046Z,4.92
2018-02-12T01:40:00.168Z,4.93
2018-02-12T01:40:26.290Z,4.93
2018-02-12T01:40:52.381Z,4.75
2018-02-12T01:41:18.480Z,4.82
2018-02-12T01:41:44.584Z,4.84
2018-02-12T01:42:10.687Z,4.78
2018-02-12T01:42:36.809Z,4.8
2018-02-12T01:43:02.912Z,4.78
2018-02-12T01:43:29.005Z,4.86
2018-02-12T01:43:55.106Z,4.87
2018-02-12T01:44:21.212Z,4.94
2018-02-12T01:44:47.306Z,5
2018-02-12T01:45:13.400Z,5.07
2018-02-12T01:45:39.524Z,5.05
2018-02-12T01:46:05.628Z,4.77
2018-02-12T01:46:31.724Z,4.78
2018-02-12T01:46:57.817Z,4.75
2018-02-12T01:47:23.924Z,4.75
2018-02-12T01:47:50.025Z,4.78
2018-02-12T01:48:16.119Z,4.74
2018-02-12T01:48:42.219Z,4.82
2018-02-12T01:49:08.335Z,4.68
2018-02-12T01:49:34.437Z,4.62
2018-02-12T01:50:00.532Z,4.62
2018-02-12T01:50:26.650Z,4.68
2018-02-12T01:50:52.764Z,4.74
2018-02-12T01:51:18.865Z,4.73
2018-02-12T01:51:44.967Z,4.73
2018-02-12T01:52:11.070Z,4.7
2018-02-12T01:52:37.168Z,4.77
2018-02-12T01:53:03.267Z,4.8
2018-02-12T01:53:29.363Z,4.77
2018-02-12T01:53:55.462Z,4.71
2018-02-12T01:54:21.566Z,4.7
2018-02-12T01:54:47.663Z,4.66
2018-02-12T01:55:13.769Z,4.68
2018-02-12T01:55:39.886Z,4.73
2018-02-12T01:56:06.004Z,4.7
2018-02-12T01:56:32.105Z,4.71
2018-02-12T01:56:58.206Z,4.67
2018-02-12T01:57:24.306Z,4.71
2018-02-12T01:57:50.403Z,4.67
2018-02-12T01:58:16.509Z,4.7
2018-02-12T01:58:42.611Z,4.74
2018-02-12T01:59:08.703Z,4.74
2018-02-12T01:59:34.818Z,4.73
2018-02-12T02:00:00.919Z,4.66
2018-02-12T02:00:27.021Z,4.66
2018-02-12T02:00:53.121Z,4.68
2018-02-12T02:01:19.217Z,4.58
2018-02-12T02:01:45.316Z,4.55
2018-02-12T02:02:11.419Z,4.58
2018-02-12T02:02:37.553Z,4.56
2018-02-12T02:03:03.656Z,4.68
2018-02-12T02:03:29.772Z,4.71
2018-02-12T02:03:55.866Z,4.6
2018-02-12T02:04:21.965Z,4.58
2018-02-12T02:04:48.071Z,4.53
2018-02-12T02:05:14.176Z,4.6
2018-02-12T02:05:40.272Z,4.44
2018-02-12T02:06:06.372Z,4.44
2018-02-12T02:06:32.469Z,4.45
2018-02-12T02:06:58.567Z,4.52
2018-02-12T02:07:24.663Z,4.44
2018-02-12T02:07:50.776Z,4.53
2018-02-12T02:08:16.882Z,4.48
2018-02-12T02:08:42.983Z,4.58
2018-02-12T02:09:09.086Z,4.6
2018-02-12T02:09:35.181Z,4.63
2018-02-12T02:10:01.285Z,4.7
2018-02-12T02:10:27.385Z,4.71
2018-02-12T02:10:53.483Z,4.67
2018-02-12T02:11:19.587Z,4.67
2018-02-12T02:11:45.683Z,4.66
2018-02-12T02:12:11.787Z,4.73
2018-02-12T02:12:37.883Z,4.62
2018-02-12T02:13:03.988Z,4.68
2018-02-12T02:13:30.085Z,4.73
2018-02-12T02:13:56.185Z,4.68
2018-02-12T02:14:22.282Z,4.71
2018-02-12T02:14:48.384Z,4.73
2018-02-12T02:15:14.479Z,4.73
2018-02-12T02:15:40.591Z,4.68
2018-02-12T02:16:06.694Z,4.66
2018-02-12T02:16:32.791Z,4.6
2018-02-12T02:16:58.896Z,4.63
2018-02-12T02:17:24.996Z,4.48
2018-02-12T02:17:51.092Z,4.58
2018-02-12T02:18:17.188Z,4.55
2018-02-12T02:18:43.289Z,4.58
2018-02-12T02:19:09.418Z,4.6
2018-02-12T02:19:35.513Z,4.6
2018-02-12T02:20:01.610Z,4.48
2018-02-12T02:20:27.708Z,4.48
2018-02-12T02:20:53.814Z,4.55
2018-02-12T02:21:19.928Z,4.6
2018-02-12T02:21:46.026Z,4.5
2018-02-12T02:22:12.154Z,4.44
2018-02-12T02:22:38.266Z,4.4
2018-02-12T02:23:04.386Z,4.38
2018-02-12T02:23:30.485Z,4.37
2018-02-12T02:23:56.584Z,4.3
2018-02-12T02:24:22.684Z,4.2
2018-02-12T02:24:48.789Z,4.28
2018-02-12T02:25:14.888Z,4.24
2018-02-12T02:25:40.983Z,4.22
2018-02-12T02:26:07.082Z,4.24
2018-02-12T02:26:33.178Z,4.34
2018-02-12T02:26:59.281Z,4.32
2018-02-12T02:27:25.379Z,4.34
2018-02-12T02:27:51.482Z,4.24
2018-02-12T02:28:17.600Z,4.32
2018-02-12T02:28:43.705Z,4.45
2018-02-12T02:29:09.801Z,4.44
2018-02-12T02:29:35.904Z,4.32
2018-02-12T02:30:02.017Z,4.3
2018-02-12T02:30:28.111Z,4.4
2018-02-12T02:30:54.235Z,4.38
2018-02-12T02:31:20.350Z,4.38
2018-02-12T02:31:46.450Z,4.3
2018-02-12T02:32:12.547Z,4.24
2018-02-12T02:32:38.645Z,4.23
2018-02-12T02:33:04.746Z,4.32
2018-02-12T02:33:30.841Z,4.37
2018-02-12T02:33:56.944Z,4.45
2018-02-12T02:34:23.040Z,4.56
2018-02-12T02:34:49.140Z,4.49
2018-02-12T02:35:15.237Z,4.58
2018-02-12T02:35:41.335Z,4.7
2018-02-12T02:36:07.440Z,4.75
2018-02-12T02:36:33.541Z,4.9
2018-02-12T02:36:59.635Z,5.02
2018-02-12T02:37:25.746Z,5.02
2018-02-12T02:37:51.864Z,5.05
2018-02-12T02:38:17.971Z,5.12
2018-02-12T02:38:44.086Z,5.2
2018-02-12T02:39:10.182Z,5.35
2018-02-12T02:39:36.286Z,5.28
2018-02-12T02:40:02.389Z,5.28
2018-02-12T02:40:28.505Z,5.44
2018-02-12T02:40:54.607Z,5.43
2018-02-12T02:41:20.714Z,5.41
2018-02-12T02:41:46.804Z,5.23
2018-02-12T02:42:13.056Z,5.2
2018-02-12T02:42:39.721Z,5.1
2018-02-12T02:43:05.822Z,5.07
2018-02-12T02:43:32.437Z,5.05
2018-02-12T02:43:58.830Z,4.99
2018-02-12T02:44:26.004Z,5.04
2018-02-12T02:44:52.478Z,5
2018-02-12T02:45:18.682Z,4.89
2018-02-12T02:45:44.790Z,4.89
2018-02-12T02:46:11.222Z,4.94
2018-02-12T02:46:37.892Z,4.99
2018-02-12T02:47:04.225Z,4.89
2018-02-12T02:47:30.614Z,4.9
2018-02-12T02:47:57.143Z,4.86
2018-02-12T02:48:23.218Z,4.74
2018-02-12T02:48:49.349Z,4.78
2018-02-12T02:49:15.602Z,4.75
2018-02-12T02:49:41.713Z,4.82
2018-02-12T02:50:07.908Z,4.78
2018-02-12T02:50:34.035Z,4.82
2018-02-12T02:51:00.213Z,4.78
2018-02-12T02:51:26.310Z,4.77
2018-02-12T02:51:52.864Z,4.67
2018-02-12T02:52:19.011Z,4.67
2018-02-12T02:52:45.191Z,4.68
2018-02-12T02:53:11.647Z,4.74
2018-02-12T02:53:37.779Z,4.67
2018-02-12T02:54:04.403Z,4.7
2018-02-12T02:54:30.675Z,4.7
2018-02-12T02:54:57.282Z,4.56
2018-02-12T02:55:23.594Z,4.56
2018-02-12T02:55:49.724Z,4.56
2018-02-12T02:56:16.162Z,4.58
2018-02-12T02:56:42.287Z,4.59
2018-02-12T02:57:08.610Z,4.59
2018-02-12T02:57:35.305Z,4.49
2018-02-12T02:58:01.797Z,4.56
2018-02-12T02:58:28.167Z,4.58
2018-02-12T02:58:54.274Z,4.67
2018-02-12T02:59:20.499Z,4.67
2018-02-12T02:59:47.143Z,4.63
2018-02-12T03:00:13.332Z,4.58
2018-02-12T03:00:39.780Z,4.56
2018-02-12T03:01:05.928Z,4.58
2018-02-12T03:01:32.121Z,4.58
2018-02-12T03:01:58.615Z,4.58
2018-02-12T03:02:25.101Z,4.56
2018-02-12T03:02:51.294Z,4.55
2018-02-12T03:03:17.391Z,4.5
2018-02-12T03:03:43.506Z,4.42
2018-02-12T03:04:09.979Z,4.49
2018-02-12T03:04:36.340Z,4.34
2018-02-12T03:05:02.464Z,4.38
2018-02-12T03:05:28.913Z,4.45
2018-02-12T03:05:55.055Z,4.52
2018-02-12T03:06:21.326Z,4.34
2018-02-12T03:06:47.796Z,4.49
2018-02-12T03:07:13.933Z,4.45
2018-02-12T03:07:40.255Z,4.5
2018-02-12T03:08:06.357Z,4.49
2018-02-12T03:08:32.560Z,4.5
2018-02-12T03:08:59.116Z,4.42
2018-02-12T03:09:25.293Z,4.42
2018-02-12T03:09:51.917Z,4.48
2018-02-12T03:10:17.986Z,4.41
2018-02-12T03:10:44.086Z,4.44
2018-02-12T03:11:10.178Z,4.48
2018-02-12T03:11:36.488Z,4.44
2018-02-12T03:12:02.723Z,4.41
2018-02-12T03:12:28.958Z,4.5
2018-02-12T03:12:55.060Z,4.45
2018-02-12T03:13:21.240Z,4.52
2018-02-12T03:13:47.398Z,4.45
2018-02-12T03:14:13.577Z,4.35
2018-02-12T03:14:39.760Z,4.37
2018-02-12T03:15:05.901Z,4.45
2018-02-12T03:15:32.019Z,4.4
2018-02-12T03:15:58.252Z,4.52
2018-02-12T03:16:24.479Z,4.5
2018-02-12T03:16:51.178Z,4.5
2018-02-12T03:17:17.329Z,4.49
2018-02-12T03:17:43.467Z,4.49
2018-02-12T03:18:09.980Z,4.53
2018-02-12T03:18:36.900Z,4.56
2018-02-12T03:19:03.156Z,4.58
2018-02-12T03:19:29.337Z,4.6
2018-02-12T03:19:55.471Z,4.59
2018-02-12T03:20:21.763Z,4.56
2018-02-12T03:20:47.859Z,4.59
2018-02-12T03:21:13.956Z,4.58
2018-02-12T03:21:40.207Z,4.49
2018-02-12T03:22:06.884Z,4.5
2018-02-12T03:22:33.492Z,4.52
2018-02-12T03:22:59.594Z,4.55
2018-02-12T03:23:25.698Z,4.49
2018-02-12T03:23:51.806Z,4.45
2018-02-12T03:24:17.900Z,4.42
2018-02-12T03:24:43.995Z,4.32
2018-02-12T03:25:10.099Z,4.31
2018-02-12T03:25:36.195Z,4.37
2018-02-12T03:26:02.298Z,4.38
2018-02-12T03:26:28.416Z,4.26
2018-02-12T03:26:54.518Z,4.3
2018-02-12T03:27:20.618Z,4.35
2018-02-12T03:27:46.734Z,4.37
2018-02-12T03:28:12.830Z,4.38
2018-02-12T03:28:38.928Z,4.35
2018-02-12T03:29:05.045Z,4.37
2018-02-12T03:29:31.142Z,4.3
2018-02-12T03:29:57.242Z,4.3
2018-02-12T03:30:23.341Z,4.37
2018-02-12T03:30:49.438Z,4.22
2018-02-12T03:31:15.538Z,4.34
2018-02-12T03:31:41.639Z,4.28
2018-02-12T03:32:07.737Z,4.22
2018-02-12T03:32:33.835Z,4.32
2018-02-12T03:32:59.940Z,4.22
2018-02-12T03:33:26.053Z,4.34
2018-02-12T03:33:52.158Z,4.41
2018-02-12T03:34:18.260Z,4.42
2018-02-12T03:34:44.360Z,4.37
2018-02-12T03:35:10.479Z,4.34
2018-02-12T03:35:36.592Z,4.38
2018-02-12T03:36:02.689Z,4.35
2018-02-12T03:36:28.793Z,4.44
2018-02-12T03:36:54.898Z,4.34
2018-02-12T03:37:20.988Z,4.49
2018-02-12T03:37:47.086Z,4.35
2018-02-12T03:38:13.182Z,4.37
2018-02-12T03:38:39.303Z,4.45
2018-02-12T03:39:05.407Z,4.49
2018-02-12T03:39:31.502Z,4.44
2018-02-12T03:39:57.610Z,4.44
2018-02-12T03:40:23.701Z,4.48
2018-02-12T03:40:49.805Z,4.4
2018-02-12T03:41:15.924Z,4.41
2018-02-12T03:41:42.024Z,4.34
2018-02-12T03:42:08.118Z,4.34
2018-02-12T03:42:34.220Z,4.42
2018-02-12T03:43:00.321Z,4.45
2018-02-12T03:43:26.417Z,4.48
2018-02-12T03:43:52.520Z,4.5
2018-02-12T03:44:18.618Z,4.5
2018-02-12T03:44:44.717Z,4.53
2018-02-12T03:45:10.816Z,4.5
2018-02-12T03:45:36.912Z,4.5
2018-02-12T03:46:03.013Z,4.56
2018-02-12T03:46:29.116Z,4.55
2018-02-12T03:46:55.214Z,4.49
2018-02-12T03:47:21.308Z,4.44
2018-02-12T03:47:47.411Z,4.32
2018-02-12T03:48:13.515Z,4.5
2018-02-12T03:48:39.611Z,4.48
2018-02-12T03:49:05.725Z,4.42
2018-02-12T03:49:31.845Z,4.44
2018-02-12T03:49:57.946Z,4.31
2018-02-12T03:50:24.044Z,4.42
2018-02-12T03:50:50.163Z,4.42
2018-02-12T03:51:16.257Z,4.35
2018-02-12T03:51:42.356Z,4.37
2018-02-12T03:52:08.458Z,4.49
2018-02-12T03:52:34.554Z,4.44
2018-02-12T03:53:00.656Z,4.48
2018-02-12T03:53:26.759Z,4.44
2018-02-12T03:53:52.862Z,4.44
2018-02-12T03:54:18.964Z,4.48
2018-02-12T03:54:45.056Z,4.45
2018-02-12T03:55:11.153Z,4.41
2018-02-12T03:55:37.253Z,4.42
2018-02-12T03:56:03.349Z,4.42
2018-02-12T03:56:29.447Z,4.45
2018-02-12T03:56:55.548Z,4.49
2018-02-12T03:57:21.670Z,4.5
2018-02-12T03:57:47.786Z,4.53
2018-02-12T03:58:13.889Z,4.53
2018-02-12T03:58:39.984Z,4.58
2018-02-12T03:59:06.082Z,4.55
2018-02-12T03:59:32.185Z,4.45
2018-02-12T03:59:58.283Z,4.55
2018-02-12T04:00:24.377Z,4.41
2018-02-12T04:00:50.483Z,4.48
2018-02-12T04:01:16.584Z,4.5
2018-02-12T04:01:42.682Z,4.52
2018-02-12T04:02:08.783Z,4.55
2018-02-12T04:02:34.886Z,4.52
2018-02-12T04:03:01.000Z,4.44
2018-02-12T04:03:27.096Z,4.42
2018-02-12T04:03:53.197Z,4.49
2018-02-12T04:04:19.297Z,4.44
2018-02-12T04:04:45.411Z,4.42
2018-02-12T04:05:11.532Z,4.4
2018-02-12T04:05:37.632Z,4.41
2018-02-12T04:06:03.729Z,4.45
2018-02-12T04:06:29.824Z,4.37
2018-02-12T04:06:55.924Z,4.49
2018-02-12T04:07:22.022Z,4.38
2018-02-12T04:07:48.119Z,4.48
2018-02-12T04:08:14.219Z,4.4
2018-02-12T04:08:40.338Z,4.24
2018-02-12T04:09:06.434Z,4.2
2018-02-12T04:09:32.553Z,4.26
2018-02-12T04:09:58.669Z,4.34
2018-02-12T04:10:24.774Z,4.34
2018-02-12T04:10:50.865Z,4.38
2018-02-12T04:11:16.962Z,4.5
2018-02-12T04:11:43.080Z,4.44
2018-02-12T04:12:09.173Z,4.5
2018-02-12T04:12:35.292Z,4.5
2018-02-12T04:13:01.393Z,4.44
2018-02-12T04:13:27.496Z,4.32
2018-02-12T04:13:53.600Z,4.34
2018-02-12T04:14:19.697Z,4.3
2018-02-12T04:14:45.801Z,4.23
2018-02-12T04:15:11.935Z,4.23
2018-02-12T04:15:38.034Z,4.22
2018-02-12T04:16:04.138Z,4.13
2018-02-12T04:16:30.239Z,4.19
2018-02-12T04:16:56.350Z,4.16
2018-02-12T04:17:22.455Z,4.19
2018-02-12T04:17:48.552Z,4.22
2018-02-12T04:18:14.674Z,4.22
2018-02-12T04:18:40.766Z,4.16
2018-02-12T04:19:06.868Z,4.14
2018-02-12T04:19:32.968Z,4.19
2018-02-12T04:19:59.077Z,4.23
2018-02-12T04:20:25.174Z,4.2
2018-02-12T04:20:51.269Z,4.19
2018-02-12T04:21:17.373Z,4.2
2018-02-12T04:21:43.468Z,4.17
2018-02-12T04:22:09.567Z,4.19
2018-02-12T04:22:35.668Z,4.17
2018-02-12T04:23:01.765Z,4.08
2018-02-12T04:23:27.872Z,4.05
2018-02-12T04:23:53.981Z,4.02
2018-02-12T04:24:20.086Z,3.98
2018-02-12T04:24:46.181Z,3.95
2018-02-12T04:25:12.277Z,4.01
2018-02-12T04:25:38.401Z,3.99
2018-02-12T04:26:04.498Z,4.05
2018-02-12T04:26:30.594Z,4.04
2018-02-12T04:26:56.694Z,4.01
2018-02-12T04:27:22.807Z,4.05
2018-02-12T04:27:48.913Z,3.98
2018-02-12T04:28:15.009Z,3.96
2018-02-12T04:28:41.116Z,3.98
2018-02-12T04:29:07.222Z,3.94
2018-02-12T04:29:33.321Z,3.94
2018-02-12T04:29:59.416Z,3.91
2018-02-12T04:30:25.523Z,3.76
2018-02-12T04:30:51.627Z,3.77
2018-02-12T04:31:17.726Z,3.68
2018-02-12T04:31:43.820Z,3.74
2018-02-12T04:32:09.915Z,3.69
2018-02-12T04:32:36.019Z,3.76
2018-02-12T04:33:02.131Z,3.74
2018-02-12T04:33:28.221Z,3.69
2018-02-12T04:33:54.315Z,3.69
2018-02-12T04:34:20.410Z,3.68
2018-02-12T04:34:46.510Z,3.65
2018-02-12T04:35:12.615Z,3.68
2018-02-12T04:35:38.722Z,3.69
2018-02-12T04:36:04.818Z,3.63
2018-02-12T04:36:30.921Z,3.63
2018-02-12T04:36:57.033Z,3.77
2018-02-12T04:37:23.142Z,3.76
2018-02-12T04:37:49.251Z,3.69
2018-02-12T04:38:15.352Z,3.66
2018-02-12T04:38:41.447Z,3.81
2018-02-12T04:39:07.550Z,3.69
2018-02-12T04:39:33.649Z,3.86
2018-02-12T04:39:59.745Z,3.8
2018-02-12T04:40:25.863Z,3.73
2018-02-12T04:40:51.958Z,3.66
2018-02-12T04:41:18.063Z,3.63
2018-02-12T04:41:44.162Z,3.51
2018-02-12T04:42:10.255Z,3.59
2018-02-12T04:42:36.360Z,3.51
2018-02-12T04:43:02.458Z,3.63
2018-02-12T04:43:28.576Z,3.63
2018-02-12T04:43:54.693Z,3.68
2018-02-12T04:44:20.789Z,3.65
2018-02-12T04:44:46.894Z,3.78
2018-02-12T04:45:12.990Z,3.63
2018-02-12T04:45:39.086Z,3.8
2018-02-12T04:46:05.192Z,3.7
2018-02-12T04:46:31.287Z,3.76
2018-02-12T04:46:57.406Z,3.6
2018-02-12T04:47:23.506Z,3.51
2018-02-12T04:47:49.602Z,3.51
2018-02-12T04:48:15.706Z,3.44
2018-02-12T04:48:41.818Z,3.51
2018-02-12T04:49:07.925Z,3.55
2018-02-12T04:49:34.027Z,3.51
2018-02-12T04:50:00.122Z,3.47
2018-02-12T04:50:26.235Z,3.42
2018-02-12T04:50:52.331Z,3.44
2018-02-12T04:51:18.429Z,3.23
2018-02-12T04:51:44.533Z,3.28
2018-02-12T04:52:10.625Z,3.22
2018-02-12T04:52:36.728Z,3.42
2018-02-12T04:53:02.824Z,3.42
2018-02-12T04:53:28.931Z,3.44
2018-02-12T04:53:55.029Z,3.42
2018-02-12T04:54:21.126Z,3.23
2018-02-12T04:54:47.243Z,3.26
2018-02-12T04:55:13.335Z,3.26
2018-02-12T04:55:39.438Z,3.23
2018-02-12T04:56:05.535Z,3.19
2018-02-12T04:56:31.636Z,3.22
2018-02-12T04:56:57.738Z,3.29
2018-02-12T04:57:23.837Z,3.31
2018-02-12T04:57:49.937Z,3.36
2018-02-12T04:58:16.034Z,3.37
2018-02-12T04:58:42.138Z,3.41
2018-02-12T04:59:08.235Z,3.5
2018-02-12T04:59:34.330Z,3.45
2018-02-12T05:00:00.434Z,3.48
2018-02-12T05:00:26.528Z,3.53
2018-02-12T05:00:52.630Z,3.53
2018-02-12T05:01:18.750Z,3.6
2018-02-12T05:01:44.866Z,3.65
2018-02-12T05:02:10.963Z,3.66
2018-02-12T05:02:37.082Z,3.62
2018-02-12T05:03:03.179Z,3.65
2018-02-12T05:03:29.282Z,3.78
2018-02-12T05:03:55.376Z,3.8
2018-02-12T05:04:21.476Z,3.76
2018-02-12T05:04:47.578Z,3.76
2018-02-12T05:05:13.679Z,3.87
2018-02-12T05:05:39.773Z,3.84
2018-02-12T05:06:05.877Z,3.83
2018-02-12T05:06:31.978Z,3.87
2018-02-12T05:06:58.071Z,3.86
2018-02-12T05:07:24.172Z,3.8
2018-02-12T05:07:50.289Z,3.88
2018-02-12T05:08:16.387Z,3.94
2018-02-12T05:08:42.487Z,3.92
2018-02-12T05:09:08.575Z,3.98
2018-02-12T05:09:34.679Z,3.91
2018-02-12T05:10:00.780Z,3.96
2018-02-12T05:10:26.878Z,3.99
2018-02-12T05:10:52.979Z,4.01
2018-02-12T05:11:19.071Z,3.91
2018-02-12T05:11:45.173Z,4.04
2018-02-12T05:12:11.272Z,4.01
2018-02-12T05:12:37.375Z,4.12
2018-02-12T05:13:03.472Z,4.12
2018-02-12T05:13:29.577Z,4.12
2018-02-12T05:13:55.694Z,4.13
2018-02-12T05:14:21.790Z,4.12
2018-02-12T05:14:47.895Z,4.05
2018-02-12T05:15:14.010Z,4.02
2018-02-12T05:15:40.113Z,4.08
2018-02-12T05:16:06.212Z,4.12
2018-02-12T05:16:32.305Z,4.05
2018-02-12T05:16:58.412Z,3.98
2018-02-12T05:17:24.503Z,4.01
2018-02-12T05:17:50.606Z,3.99
2018-02-12T05:18:16.702Z,4.16
2018-02-12T05:18:42.804Z,4.14
2018-02-12T05:19:08.904Z,4.12
2018-02-12T05:19:35.005Z,4.06
2018-02-12T05:20:01.103Z,3.98
2018-02-12T05:20:27.209Z,3.98
2018-02-12T05:20:53.302Z,3.94
2018-02-12T05:21:19.405Z,3.96
2018-02-12T05:21:45.505Z,3.94
2018-02-12T05:22:11.600Z,3.95
2018-02-12T05:22:37.720Z,3.96
2018-02-12T05:23:03.814Z,3.95
2018-02-12T05:23:29.916Z,4.01
2018-02-12T05:23:56.017Z,3.98
2018-02-12T05:24:22.111Z,3.92
2018-02-12T05:24:48.237Z,4.01
2018-02-12T05:25:14.332Z,3.99
2018-02-12T05:25:40.436Z,3.92
2018-02-12T05:26:06.532Z,3.99
2018-02-12T05:26:32.630Z,3.98
2018-02-12T05:26:58.732Z,3.95
2018-02-12T05:27:24.828Z,3.95
2018-02-12T05:27:50.934Z,3.94
2018-02-12T05:28:17.033Z,3.94
2018-02-12T05:28:43.132Z,3.94
2018-02-12T05:29:09.237Z,3.87
2018-02-12T05:29:35.333Z,3.92
2018-02-12T05:30:01.437Z,3.92
2018-02-12T05:30:27.530Z,3.95
2018-02-12T05:30:53.630Z,3.95
2018-02-12T05:31:19.730Z,3.96
2018-02-12T05:31:45.846Z,3.96
2018-02-12T05:32:11.953Z,3.92
2018-02-12T05:32:38.047Z,3.98
2018-02-12T05:33:04.165Z,3.98
2018-02-12T05:33:30.261Z,3.96
2018-02-12T05:33:56.363Z,3.98
2018-02-12T05:34:22.454Z,4.04
2018-02-12T05:34:48.557Z,3.98
2018-02-12T05:35:14.661Z,4.05
2018-02-12T05:35:40.761Z,3.91
2018-02-12T05:36:06.881Z,3.87
2018-02-12T05:36:32.977Z,3.87
2018-02-12T05:36:59.079Z,3.91
2018-02-12T05:37:25.190Z,3.77
2018-02-12T05:37:51.288Z,3.78
2018-02-12T05:38:17.389Z,3.69
2018-02-12T05:38:43.487Z,3.77
2018-02-12T05:39:09.585Z,3.8
2018-02-12T05:39:35.683Z,3.81
2018-02-12T05:40:01.781Z,3.74
2018-02-12T05:40:27.886Z,3.8
2018-02-12T05:40:53.983Z,3.83
2018-02-12T05:41:20.098Z,3.8
2018-02-12T05:41:46.205Z,3.78
2018-02-12T05:42:12.305Z,3.88
2018-02-12T05:42:38.400Z,3.8
2018-02-12T05:43:04.513Z,3.78
2018-02-12T05:43:30.645Z,3.78
2018-02-12T05:43:56.716Z,3.7
2018-02-12T05:44:22.817Z,3.81
2018-02-12T05:44:48.914Z,3.77
2018-02-12T05:45:15.021Z,3.65
2018-02-12T05:45:41.115Z,3.69
2018-02-12T05:46:07.217Z,3.62
2018-02-12T05:46:33.320Z,3.73
2018-02-12T05:46:59.415Z,3.74
2018-02-12T05:47:25.531Z,3.73
2018-02-12T05:47:51.635Z,3.76
2018-02-12T05:48:17.736Z,3.77
2018-02-12T05:48:43.830Z,3.76
2018-02-12T05:49:09.929Z,3.78
2018-02-12T05:49:36.037Z,3.8